sensor_id;sensor_type;location;lat;lon;timestamp;temperature;humidity
28069;DHT22;15382;47.578;8.086;2023-06-19T00:00:38;18.70;99.90
28069;DHT22;15382;47.578;8.086;2023-06-19T00:10:40;18.80;99.90
28069;DHT22;15382;47.578;8.086;2023-06-19T00:20:40;17.90;99.90
28069;DHT22;15382;47.578;8.086;2023-06-19T00:30:41;17.70;99.90
28069;DHT22;15382;47.578;8.086;2023-06-19T00:40:42;18.00;99.90
28069;DHT22;15382;47.578;8.086;2023-06-19T00:50:43;17.80;99.90
28069;DHT22;15382;47.578;8.086;2023-06-19T01:00:44;17.90;99.90
28069;DHT22;15382;47.578;8.086;2023-06-19T01:10:46;17.90;99.90
28069;DHT22;15382;47.578;8.086;2023-06-19T01:20:50;18.10;99.90
28069;DHT22;15382;47.578;8.086;2023-06-19T01:30:50;17.90;99.90
28069;DHT22;15382;47.578;8.086;2023-06-19T01:40:52;18.10;99.90
28069;DHT22;15382;47.578;8.086;2023-06-19T01:50:53;18.30;99.90
28069;DHT22;15382;47.578;8.086;2023-06-19T02:00:54;18.40;99.90
28069;DHT22;15382;47.578;8.086;2023-06-19T02:10:55;18.40;99.90
28069;DHT22;15382;47.578;8.086;2023-06-19T02:20:57;18.30;99.90
28069;DHT22;15382;47.578;8.086;2023-06-19T02:30:58;18.20;99.90
28069;DHT22;15382;47.578;8.086;2023-06-19T02:40:59;18.10;99.90
28069;DHT22;15382;47.578;8.086;2023-06-19T02:51:01;17.80;99.90
28069;DHT22;15382;47.578;8.086;2023-06-19T03:01:02;17.60;99.90
28069;DHT22;15382;47.578;8.086;2023-06-19T03:11:03;17.80;99.90
28069;DHT22;15382;47.578;8.086;2023-06-19T03:21:05;17.90;99.90
28069;DHT22;15382;47.578;8.086;2023-06-19T03:31:06;17.60;99.90
28069;DHT22;15382;47.578;8.086;2023-06-19T03:41:07;17.60;99.90
28069;DHT22;15382;47.578;8.086;2023-06-19T03:51:07;17.70;99.90
28069;DHT22;15382;47.578;8.086;2023-06-19T04:01:09;17.90;99.90
28069;DHT22;15382;47.578;8.086;2023-06-19T04:11:09;17.80;99.90
28069;DHT22;15382;47.578;8.086;2023-06-19T04:21:12;17.70;99.90
28069;DHT22;15382;47.578;8.086;2023-06-19T04:31:13;17.80;99.90
28069;DHT22;15382;47.578;8.086;2023-06-19T04:41:18;18.00;99.90
28069;DHT22;15382;47.578;8.086;2023-06-19T04:51:19;18.00;99.90
28069;DHT22;15382;47.578;8.086;2023-06-19T05:01:21;18.10;99.90
28069;DHT22;15382;47.578;8.086;2023-06-19T05:11:27;18.20;99.90
28069;DHT22;15382;47.578;8.086;2023-06-19T05:21:28;18.30;99.90
28069;DHT22;15382;47.578;8.086;2023-06-19T05:31:29;18.30;99.90
28069;DHT22;15382;47.578;8.086;2023-06-19T05:41:29;18.30;99.90
28069;DHT22;15382;47.578;8.086;2023-06-19T05:51:31;18.40;99.90
28069;DHT22;15382;47.578;8.086;2023-06-19T06:01:31;18.60;99.90
28069;DHT22;15382;47.578;8.086;2023-06-19T06:11:32;18.90;99.90
28069;DHT22;15382;47.578;8.086;2023-06-19T06:21:33;19.50;99.90
28069;DHT22;15382;47.578;8.086;2023-06-19T06:31:37;20.30;99.90
28069;DHT22;15382;47.578;8.086;2023-06-19T06:41:38;20.40;99.90
28069;DHT22;15382;47.578;8.086;2023-06-19T06:51:39;20.60;99.90
28069;DHT22;15382;47.578;8.086;2023-06-19T07:01:40;20.80;99.90
28069;DHT22;15382;47.578;8.086;2023-06-19T07:11:41;20.70;99.90
28069;DHT22;15382;47.578;8.086;2023-06-19T07:21:42;21.10;99.90
28069;DHT22;15382;47.578;8.086;2023-06-19T07:31:43;21.50;99.90
28069;DHT22;15382;47.578;8.086;2023-06-19T07:41:44;21.10;99.90
28069;DHT22;15382;47.578;8.086;2023-06-19T07:51:46;21.30;99.90
28069;DHT22;15382;47.578;8.086;2023-06-19T08:01:46;21.70;99.90
28069;DHT22;15382;47.578;8.086;2023-06-19T08:11:47;21.60;99.90
28069;DHT22;15382;47.578;8.086;2023-06-19T08:21:48;22.90;99.90
28069;DHT22;15382;47.578;8.086;2023-06-19T08:31:48;24.70;99.90
28069;DHT22;15382;47.578;8.086;2023-06-19T08:41:49;25.70;99.90
28069;DHT22;15382;47.578;8.086;2023-06-19T08:51:49;25.50;99.90
28069;DHT22;15382;47.578;8.086;2023-06-19T09:01:51;26.80;99.90
28069;DHT22;15382;47.578;8.086;2023-06-19T09:12:02;27.60;99.90
28069;DHT22;15382;47.578;8.086;2023-06-19T09:22:06;28.10;99.90
28069;DHT22;15382;47.578;8.086;2023-06-19T09:32:13;27.40;99.90
28069;DHT22;15382;47.578;8.086;2023-06-19T09:42:14;27.70;99.90
28069;DHT22;15382;47.578;8.086;2023-06-19T09:52:16;28.60;99.90
28069;DHT22;15382;47.578;8.086;2023-06-19T10:02:20;27.70;99.90
28069;DHT22;15382;47.578;8.086;2023-06-19T10:12:21;29.30;99.90
28069;DHT22;15382;47.578;8.086;2023-06-19T10:22:21;29.30;99.90
28069;DHT22;15382;47.578;8.086;2023-06-19T10:32:22;30.60;99.90
28069;DHT22;15382;47.578;8.086;2023-06-19T10:42:23;30.60;99.90
28069;DHT22;15382;47.578;8.086;2023-06-19T10:52:23;31.60;99.90
28069;DHT22;15382;47.578;8.086;2023-06-19T11:02:25;31.20;99.90
28069;DHT22;15382;47.578;8.086;2023-06-19T11:12:25;30.70;99.90
28069;DHT22;15382;47.578;8.086;2023-06-19T11:22:35;30.80;98.50
28069;DHT22;15382;47.578;8.086;2023-06-19T11:32:37;31.00;96.50
28069;DHT22;15382;47.578;8.086;2023-06-19T11:42:51;31.90;95.50
28069;DHT22;15382;47.578;8.086;2023-06-19T11:52:52;31.50;97.60
28069;DHT22;15382;47.578;8.086;2023-06-19T12:02:53;31.60;96.90
28069;DHT22;15382;47.578;8.086;2023-06-19T12:12:54;29.30;98.30
28069;DHT22;15382;47.578;8.086;2023-06-19T12:22:54;29.20;99.90
28069;DHT22;15382;47.578;8.086;2023-06-19T12:32:55;30.00;95.70
28069;DHT22;15382;47.578;8.086;2023-06-19T12:42:56;30.20;95.70
28069;DHT22;15382;47.578;8.086;2023-06-19T12:52:56;29.60;98.30
28069;DHT22;15382;47.578;8.086;2023-06-19T13:02:57;29.30;99.90
28069;DHT22;15382;47.578;8.086;2023-06-19T13:12:58;28.90;99.90
28069;DHT22;15382;47.578;8.086;2023-06-19T13:22:58;28.80;99.90
28069;DHT22;15382;47.578;8.086;2023-06-19T13:32:59;29.20;99.50
28069;DHT22;15382;47.578;8.086;2023-06-19T13:42:59;28.40;99.90
28069;DHT22;15382;47.578;8.086;2023-06-19T13:53:02;28.70;99.90
28069;DHT22;15382;47.578;8.086;2023-06-19T14:03:02;29.60;99.90
28069;DHT22;15382;47.578;8.086;2023-06-19T14:13:03;31.50;95.90
28069;DHT22;15382;47.578;8.086;2023-06-19T14:23:04;32.70;93.80
28069;DHT22;15382;47.578;8.086;2023-06-19T14:33:05;32.20;94.90
28069;DHT22;15382;47.578;8.086;2023-06-19T14:43:05;32.40;94.00
28069;DHT22;15382;47.578;8.086;2023-06-19T14:53:06;31.20;94.00
28069;DHT22;15382;47.578;8.086;2023-06-19T15:03:07;31.50;94.80
28069;DHT22;15382;47.578;8.086;2023-06-19T15:13:07;31.20;96.50
28069;DHT22;15382;47.578;8.086;2023-06-19T15:23:08;31.50;94.30
28069;DHT22;15382;47.578;8.086;2023-06-19T15:33:09;31.20;95.00
28069;DHT22;15382;47.578;8.086;2023-06-19T15:43:09;31.30;96.60
28069;DHT22;15382;47.578;8.086;2023-06-19T15:53:10;31.40;96.00
28069;DHT22;15382;47.578;8.086;2023-06-19T16:03:11;31.00;95.60
28069;DHT22;15382;47.578;8.086;2023-06-19T16:13:12;30.10;97.20
28069;DHT22;15382;47.578;8.086;2023-06-19T16:23:13;30.80;96.00
28069;DHT22;15382;47.578;8.086;2023-06-19T16:33:14;30.60;95.20
28069;DHT22;15382;47.578;8.086;2023-06-19T16:43:15;30.90;94.30
28069;DHT22;15382;47.578;8.086;2023-06-19T16:53:16;30.30;92.30
28069;DHT22;15382;47.578;8.086;2023-06-19T17:03:17;29.90;92.20
28069;DHT22;15382;47.578;8.086;2023-06-19T17:13:18;29.60;94.30
28069;DHT22;15382;47.578;8.086;2023-06-19T17:23:18;29.00;95.00
28069;DHT22;15382;47.578;8.086;2023-06-19T17:33:19;28.70;96.30
28069;DHT22;15382;47.578;8.086;2023-06-19T17:43:19;28.50;96.30
28069;DHT22;15382;47.578;8.086;2023-06-19T17:53:20;28.20;97.40
28069;DHT22;15382;47.578;8.086;2023-06-19T18:03:21;28.30;98.30
28069;DHT22;15382;47.578;8.086;2023-06-19T18:13:21;28.60;97.60
28069;DHT22;15382;47.578;8.086;2023-06-19T18:23:22;28.40;97.30
28069;DHT22;15382;47.578;8.086;2023-06-19T18:33:23;28.00;97.20
28069;DHT22;15382;47.578;8.086;2023-06-19T18:43:24;27.80;99.40
28069;DHT22;15382;47.578;8.086;2023-06-19T18:53:25;26.40;99.90
28069;DHT22;15382;47.578;8.086;2023-06-19T19:03:25;25.50;99.90
28069;DHT22;15382;47.578;8.086;2023-06-19T19:13:26;25.30;99.90
28069;DHT22;15382;47.578;8.086;2023-06-19T19:23:27;25.30;99.90
28069;DHT22;15382;47.578;8.086;2023-06-19T19:33:28;24.80;99.90
28069;DHT22;15382;47.578;8.086;2023-06-19T19:43:28;24.40;99.90
28069;DHT22;15382;47.578;8.086;2023-06-19T19:53:29;24.10;99.90
28069;DHT22;15382;47.578;8.086;2023-06-19T20:03:30;23.80;99.90
28069;DHT22;15382;47.578;8.086;2023-06-19T20:13:31;23.50;99.90
28069;DHT22;15382;47.578;8.086;2023-06-19T20:23:33;23.10;99.90
28069;DHT22;15382;47.578;8.086;2023-06-19T20:33:34;23.00;99.90
28069;DHT22;15382;47.578;8.086;2023-06-19T20:43:34;22.70;99.90
28069;DHT22;15382;47.578;8.086;2023-06-19T20:53:35;22.80;99.90
28069;DHT22;15382;47.578;8.086;2023-06-19T21:03:36;22.60;99.90
28069;DHT22;15382;47.578;8.086;2023-06-19T21:13:36;22.70;99.90
28069;DHT22;15382;47.578;8.086;2023-06-19T21:23:37;22.30;99.90
28069;DHT22;15382;47.578;8.086;2023-06-19T21:33:38;21.90;99.90
28069;DHT22;15382;47.578;8.086;2023-06-19T21:43:40;21.60;99.90
28069;DHT22;15382;47.578;8.086;2023-06-19T21:53:41;21.60;99.90
28069;DHT22;15382;47.578;8.086;2023-06-19T22:03:42;22.00;99.90
28069;DHT22;15382;47.578;8.086;2023-06-19T22:13:42;22.00;99.90
28069;DHT22;15382;47.578;8.086;2023-06-19T22:23:43;22.10;99.90
28069;DHT22;15382;47.578;8.086;2023-06-19T22:33:44;22.00;99.90
28069;DHT22;15382;47.578;8.086;2023-06-19T22:43:44;21.90;99.90
28069;DHT22;15382;47.578;8.086;2023-06-19T22:53:45;21.60;99.90
28069;DHT22;15382;47.578;8.086;2023-06-19T23:03:46;21.10;99.90
28069;DHT22;15382;47.578;8.086;2023-06-19T23:13:47;20.40;99.90
28069;DHT22;15382;47.578;8.086;2023-06-19T23:23:47;19.80;99.90
28069;DHT22;15382;47.578;8.086;2023-06-19T23:33:51;19.60;99.90
28069;DHT22;15382;47.578;8.086;2023-06-19T23:43:52;19.80;99.90
28069;DHT22;15382;47.578;8.086;2023-06-19T23:53:53;19.80;99.90
